Time;durP1;ratioP1;P1;durP2;ratioP2;P2;SDS_P1;SDS_P2;PMS_P1;PMS_P2;Temp;Humidity;BMP_temperature;BMP_pressure;BME280_temperature;BME280_humidity;BME280_pressure;Samples;Min_cycle;Max_cycle;Signal;HPM_P1;HPM_P2
2022/08/15 00:00:34;;;;;;;9.40;7.30;;;;;;;24.10;55.72;100096.88;6210447;23;20000;-70
2022/08/15 00:03:00;;;;;;;12.25;7.55;;;;;;;24.03;56.17;100083.59;6213382;23;20019;-70
2022/08/15 00:05:25;;;;;;;10.45;7.15;;;;;;;23.96;56.18;100079.72;6214163;23;20091;-71
2022/08/15 00:07:53;;;;;;;10.52;7.43;;;;;;;23.91;56.46;100077.97;6187753;23;20008;-70
2022/08/15 00:10:19;;;;;;;10.90;7.57;;;;;;;23.99;55.92;100081.81;6213563;23;20062;-70
2022/08/15 00:12:45;;;;;;;11.65;7.28;;;;;;;23.98;56.01;100086.56;6216197;23;20009;-70
2022/08/15 00:15:15;;;;;;;9.35;7.28;;;;;;;24.01;55.59;100088.66;6216471;23;20008;-70
2022/08/15 00:17:42;;;;;;;9.02;7.63;;;;;;;23.98;55.66;100094.03;6216120;23;20009;-70
2022/08/15 00:20:10;;;;;;;9.70;7.30;;;;;;;23.86;56.67;100089.22;6188848;23;20059;-72
2022/08/15 00:22:42;;;;;;;14.45;8.07;;;;;;;23.82;56.48;100086.28;6216061;23;20005;-71
2022/08/15 00:25:08;;;;;;;12.65;7.70;;;;;;;23.74;57.17;100089.91;6215550;23;20032;-71
2022/08/15 00:27:33;;;;;;;13.02;8.13;;;;;;;23.80;57.71;100085.00;6215963;23;20365;-72
2022/08/15 00:30:00;;;;;;;12.88;7.57;;;;;;;23.80;57.88;100090.53;6189212;23;20005;-72
2022/08/15 00:32:25;;;;;;;10.10;8.40;;;;;;;23.78;56.88;100088.09;6215913;23;20000;-70
2022/08/15 00:34:51;;;;;;;15.05;8.73;;;;;;;23.80;56.43;100087.78;6215807;23;20000;-70
2022/08/15 00:37:18;;;;;;;11.55;9.05;;;;;;;23.78;56.62;100082.59;6216240;23;20004;-70
2022/08/15 00:39:44;;;;;;;10.18;8.43;;;;;;;23.78;56.92;100088.09;6215074;23;20083;-70
2022/08/15 00:42:11;;;;;;;9.38;8.40;;;;;;;23.75;55.00;100076.91;6215809;23;20015;-70
2022/08/15 00:44:44;;;;;;;14.07;7.70;;;;;;;23.75;54.41;100079.66;6189292;23;20448;-69
2022/08/15 00:47:17;;;;;;;10.77;7.90;;;;;;;23.80;52.43;100085.81;6216042;23;20009;-70
2022/08/15 00:49:44;;;;;;;9.68;7.57;;;;;;;23.89;50.86;100083.84;6214960;23;20350;-72
2022/08/15 00:52:15;;;;;;;12.32;7.38;;;;;;;23.81;51.35;100087.44;6215684;23;20008;-70
2022/08/15 00:54:48;;;;;;;10.77;6.75;;;;;;;23.83;51.01;100085.13;6215357;23;20072;-70
2022/08/15 00:57:18;;;;;;;10.98;6.32;;;;;;;23.85;50.27;100087.59;6215932;23;20414;-70
2022/08/15 00:59:52;;;;;;;10.73;6.18;;;;;;;23.89;49.51;100089.38;6214927;23;20069;-70
2022/08/15 01:02:24;;;;;;;11.82;5.82;;;;;;;23.85;48.87;100093.97;6210934;23;20402;-70
2022/08/15 01:04:50;;;;;;;8.13;5.40;;;;;;;23.82;48.65;100089.03;6215507;23;20076;-70
2022/08/15 01:07:16;;;;;;;6.72;4.90;;;;;;;23.79;47.86;100089.72;6189143;23;20009;-70
2022/08/15 01:09:42;;;;;;;7.72;3.95;;;;;;;23.81;47.57;100086.59;6214510;23;20334;-69
2022/08/15 01:12:17;;;;;;;8.20;3.75;;;;;;;23.81;47.04;100087.44;6188522;23;20008;-70
2022/08/15 01:14:47;;;;;;;6.93;3.95;;;;;;;23.77;46.67;100080.94;6215143;23;20019;-69
2022/08/15 01:17:13;;;;;;;8.25;3.70;;;;;;;23.77;46.29;100080.94;6215783;23;20007;-70
2022/08/15 01:19:50;;;;;;;6.70;3.53;;;;;;;23.77;46.49;100075.44;6215034;23;20322;-70
2022/08/15 01:23:17;;;;;;;7.00;3.50;;;;;;;23.76;46.66;100076.56;6214461;23;20495;-70
2022/08/15 01:25:52;;;;;;;8.20;3.60;;;;;;;23.74;46.03;100081.63;6093658;23;20014;-71
2022/08/15 01:28:23;;;;;;;9.20;3.50;;;;;;;23.70;45.48;100087.00;6068661;23;20021;-70
2022/08/15 01:30:55;;;;;;;8.90;3.20;;;;;;;23.69;45.67;100079.84;6159448;23;20123;-70
2022/08/15 01:33:22;;;;;;;6.82;3.15;;;;;;;23.64;45.76;100073.69;6188692;23;20008;-70
2022/08/15 01:35:49;;;;;;;9.15;3.00;;;;;;;23.62;45.65;100079.56;6215003;23;20011;-70
2022/08/15 01:38:30;;;;;;;7.82;2.90;;;;;;;23.62;45.81;100081.53;6214849;23;20104;-70
2022/08/15 01:41:05;;;;;;;5.75;2.78;;;;;;;23.59;45.49;100071.94;6189039;23;20019;-70
2022/08/15 01:43:37;;;;;;;7.85;3.08;;;;;;;23.50;45.78;100076.69;6214723;23;20000;-70
2022/08/15 01:46:07;;;;;;;6.90;2.80;;;;;;;23.46;45.96;100087.59;6215541;23;20008;-70
2022/08/15 01:48:44;;;;;;;5.47;2.90;;;;;;;23.42;45.80;100089.41;6214763;23;20079;-70
2022/08/15 01:51:13;;;;;;;7.05;2.95;;;;;;;23.32;46.17;100092.50;6188880;23;20016;-70
2022/08/15 01:53:46;;;;;;;6.88;3.00;;;;;;;23.28;45.88;100095.13;6214292;23;20087;-70
2022/08/15 01:56:20;;;;;;;7.30;3.08;;;;;;;23.22;45.96;100090.94;6215428;23;20011;-70
2022/08/15 01:58:45;;;;;;;7.05;2.70;;;;;;;23.20;45.88;100090.44;6214197;23;20051;-70
2022/08/15 02:01:15;;;;;;;3.75;2.58;;;;;;;23.13;46.10;100090.94;6210559;23;20004;-70
2022/08/15 02:03:42;;;;;;;7.85;2.80;;;;;;;23.11;45.98;100084.13;6188416;23;20062;-70
2022/08/15 02:06:15;;;;;;;5.90;2.50;;;;;;;23.07;46.29;100085.88;6215408;23;20024;-70
2022/08/15 02:08:43;;;;;;;4.28;2.70;;;;;;;23.05;46.29;100086.22;6214601;23;20004;-70
2022/08/15 02:11:13;;;;;;;6.78;2.78;;;;;;;23.01;46.48;100088.03;6215421;23;20005;-70
2022/08/15 02:13:39;;;;;;;7.43;2.60;;;;;;;22.95;46.05;100087.38;6187858;23;20433;-70
2022/08/15 02:16:04;;;;;;;4.35;2.55;;;;;;;22.91;46.48;100091.13;6215201;23;20426;-70
2022/08/15 02:18:30;;;;;;;5.93;2.60;;;;;;;22.88;46.48;100084.31;6214460;23;20000;-70
2022/08/15 02:20:57;;;;;;;7.40;2.70;;;;;;;22.85;46.56;100086.91;6214804;23;20083;-70
2022/08/15 02:23:23;;;;;;;6.03;2.60;;;;;;;22.81;46.49;100084.81;6188682;23;20032;-70
2022/08/15 02:25:51;;;;;;;5.25;2.78;;;;;;;22.75;46.74;100080.59;6214517;23;20757;-70
2022/08/15 02:28:17;;;;;;;5.03;2.80;;;;;;;22.77;46.92;100078.31;6213437;23;20001;-70
2022/08/15 02:30:42;;;;;;;3.58;2.63;;;;;;;22.70;46.96;100078.00;6214843;23;20011;-70
2022/08/15 02:33:08;;;;;;;5.72;2.78;;;;;;;22.68;47.09;100077.53;6214682;23;20007;-69
2022/08/15 02:35:34;;;;;;;5.55;2.65;;;;;;;22.63;47.19;100080.41;6188226;23;20004;-70
2022/08/15 02:38:01;;;;;;;8.20;2.88;;;;;;;22.58;47.31;100086.13;6214542;23;20012;-70
2022/08/15 02:40:27;;;;;;;4.35;2.90;;;;;;;22.56;47.30;100088.41;6215003;23;20005;-70
2022/08/15 02:42:53;;;;;;;5.65;2.92;;;;;;;22.53;47.38;100081.56;6214173;23;20438;-70
2022/08/15 02:45:18;;;;;;;7.45;2.85;;;;;;;22.57;47.45;100088.06;6215074;23;20007;-70
2022/08/15 02:47:43;;;;;;;6.22;2.67;;;;;;;22.51;47.65;100086.63;6214288;23;20092;-70
2022/08/15 02:50:11;;;;;;;7.07;2.88;;;;;;;22.53;47.55;100091.81;6214714;23;20432;-70
2022/08/15 02:52:42;;;;;;;6.60;2.90;;;;;;;22.52;47.61;100092.94;6214098;23;20009;-70
2022/08/15 02:55:10;;;;;;;6.30;2.70;;;;;;;22.50;47.52;100098.75;6214977;23;20055;-70
2022/08/15 02:57:35;;;;;;;7.10;3.28;;;;;;;22.43;47.93;100087.41;6187511;23;20009;-70
2022/08/15 03:00:03;;;;;;;12.30;3.10;;;;;;;22.46;47.64;100086.75;6214442;23;20047;-70
2022/08/15 03:02:28;;;;;;;8.25;2.92;;;;;;;22.44;47.64;100087.09;6210796;23;20020;-70
2022/08/15 03:04:53;;;;;;;3.83;2.97;;;;;;;22.46;47.57;100089.50;6213971;23;20059;-70
2022/08/15 03:07:19;;;;;;;7.72;2.65;;;;;;;22.43;47.68;100090.16;6188148;23;20012;-70
2022/08/15 03:09:44;;;;;;;8.55;2.88;;;;;;;22.40;48.27;100090.81;6214209;23;20004;-70
2022/08/15 03:12:14;;;;;;;6.07;2.80;;;;;;;22.32;48.42;100097.94;6214254;23;20445;-70
2022/08/15 03:14:40;;;;;;;5.28;2.80;;;;;;;22.30;48.55;100094.69;6214271;23;20011;-70
2022/08/15 03:17:08;;;;;;;6.25;3.10;;;;;;;22.28;48.42;100096.91;6214636;23;20412;-70
2022/08/15 03:19:35;;;;;;;5.30;2.90;;;;;;;22.24;48.65;100099.53;6213343;23;20322;-70
2022/08/15 03:22:01;;;;;;;3.47;2.60;;;;;;;22.24;48.56;100098.72;6214476;23;20008;-70
2022/08/15 03:24:26;;;;;;;6.63;3.15;;;;;;;22.23;48.89;100091.59;6214776;23;20005;-70
2022/08/15 03:26:51;;;;;;;7.10;3.20;;;;;;;22.20;48.76;100078.44;6214011;23;20005;-70
2022/08/15 03:29:19;;;;;;;6.93;3.20;;;;;;;22.18;48.65;100095.31;6214272;23;20001;-70
2022/08/15 03:31:47;;;;;;;6.40;3.38;;;;;;;22.10;49.12;100083.13;6214529;23;20015;-70
2022/08/15 03:34:15;;;;;;;5.93;3.03;;;;;;;22.07;49.11;100099.47;6214410;23;20008;-70
2022/08/15 03:36:44;;;;;;;11.07;3.50;;;;;;;22.08;48.97;100090.91;6214473;23;20016;-70
2022/08/15 03:39:09;;;;;;;5.63;3.40;;;;;;;22.05;49.17;100087.97;6214241;23;20087;-70
2022/08/15 03:41:35;;;;;;;3.47;2.95;;;;;;;22.03;49.47;100093.81;6214080;23;20039;-70
2022/08/15 03:44:00;;;;;;;6.75;3.50;;;;;;;21.98;50.23;100088.44;6214741;23;20458;-70
2022/08/15 03:46:26;;;;;;;4.05;3.28;;;;;;;21.96;49.68;100093.47;6215956;23;20008;-70
2022/08/15 03:48:54;;;;;;;4.90;3.30;;;;;;;21.93;49.70;100094.09;6215857;23;20295;-70
2022/08/15 03:51:21;;;;;;;9.48;3.53;;;;;;;21.88;50.14;100099.78;6216258;23;20337;-70
2022/08/15 03:53:59;;;;;;;4.47;3.20;;;;;;;21.81;50.24;100102.97;6215985;23;20039;-70
2022/08/15 03:56:29;;;;;;;7.38;3.95;;;;;;;21.81;50.56;100114.00;6189402;23;20074;-70
2022/08/15 03:58:57;;;;;;;8.00;3.70;;;;;;;21.76;51.05;100106.69;6215883;23;20018;-70
2022/08/15 04:01:26;;;;;;;10.25;3.58;;;;;;;21.78;50.69;100109.13;6212370;23;20652;-70
2022/08/15 04:03:52;;;;;;;6.47;3.55;;;;;;;21.79;51.00;100109.97;6216151;23;20456;-70
2022/08/15 04:06:20;;;;;;;7.38;3.55;;;;;;;21.73;51.21;100112.84;6216000;23;20088;-70
2022/08/15 04:08:47;;;;;;;9.25;3.75;;;;;;;21.71;51.57;100104.09;6215458;23;20001;-70
2022/08/15 04:11:14;;;;;;;8.80;3.58;;;;;;;21.70;51.95;100094.19;6216047;23;20007;-70
2022/08/15 04:13:40;;;;;;;11.50;3.60;;;;;;;21.67;52.43;100096.78;6216087;23;20047;-70
2022/08/15 04:16:07;;;;;;;9.55;3.30;;;;;;;21.59;52.90;100096.44;6189804;23;20001;-70
2022/08/15 04:18:35;;;;;;;10.68;3.80;;;;;;;21.63;53.03;100095.78;6215945;23;20020;-70
2022/08/15 04:21:03;;;;;;;9.20;3.63;;;;;;;21.59;53.38;100099.19;6216027;23;20415;-70
2022/08/15 04:23:29;;;;;;;10.35;3.75;;;;;;;21.57;53.70;100103.38;6216351;23;20010;-70
2022/08/15 04:25:55;;;;;;;9.68;3.45;;;;;;;21.55;54.10;100105.63;6215478;23;20032;-70
2022/08/15 04:28:23;;;;;;;9.52;4.03;;;;;;;21.57;54.32;100108.88;6215789;23;20341;-70
2022/08/15 04:30:49;;;;;;;7.18;3.70;;;;;;;21.55;54.62;100111.94;6215936;23;20015;-70
2022/08/15 04:33:25;;;;;;;7.78;3.78;;;;;;;21.54;54.96;100113.09;6216290;23;20303;-70
2022/08/15 04:35:54;;;;;;;9.43;4.00;;;;;;;21.51;55.36;100110.16;6215847;23;20028;-72
2022/08/15 04:38:20;;;;;;;9.75;3.78;;;;;;;21.49;55.51;100104.13;6215803;23;20084;-71
2022/08/15 04:40:47;;;;;;;8.43;3.67;;;;;;;21.47;56.07;100109.13;6215367;23;20494;-72
2022/08/15 04:43:13;;;;;;;9.18;4.00;;;;;;;21.46;56.43;100113.03;6215795;23;20039;-70
2022/08/15 04:45:40;;;;;;;8.23;3.72;;;;;;;21.42;56.67;100112.81;6215804;23;20000;-72
2022/08/15 04:48:06;;;;;;;9.90;3.80;;;;;;;21.38;57.24;100111.84;6216150;23;20001;-70
2022/08/15 04:50:34;;;;;;;6.90;4.35;;;;;;;21.41;57.10;100114.78;6215314;23;20490;-69
2022/08/15 04:53:01;;;;;;;9.05;4.15;;;;;;;21.46;57.38;100111.06;6215825;23;20000;-70
2022/08/15 04:55:28;;;;;;;11.15;4.55;;;;;;;21.48;57.57;100110.75;6188995;23;20039;-70
2022/08/15 04:57:55;;;;;;;11.07;4.22;;;;;;;21.45;57.79;100108.63;6188461;23;20056;-70
2022/08/15 05:00:22;;;;;;;11.40;4.20;;;;;;;21.48;58.01;100116.25;6215423;23;20126;-72
2022/08/15 05:02:58;;;;;;;8.88;3.90;;;;;;;21.52;57.44;100111.78;6212379;23;20017;-72
2022/08/15 05:05:24;;;;;;;10.65;4.20;;;;;;;21.46;58.31;100115.78;6215657;23;20019;-71
2022/08/15 05:07:49;;;;;;;6.90;4.10;;;;;;;21.48;58.43;100124.50;6215519;23;20004;-72
2022/08/15 05:10:14;;;;;;;9.70;4.00;;;;;;;21.52;58.68;100118.09;6214586;23;20005;-69
2022/08/15 05:12:40;;;;;;;7.90;3.97;;;;;;;21.56;58.43;100113.59;6215578;23;20438;-72
2022/08/15 05:15:07;;;;;;;10.95;4.20;;;;;;;21.56;58.71;100113.59;6215836;23;20005;-68
2022/08/15 05:17:32;;;;;;;10.57;4.00;;;;;;;21.58;58.88;100116.81;6189104;23;20078;-69
2022/08/15 05:19:57;;;;;;;13.07;4.35;;;;;;;21.58;58.74;100129.78;6188351;23;20030;-71
2022/08/15 05:22:23;;;;;;;11.25;4.45;;;;;;;21.58;59.28;100127.03;6215712;23;20012;-72
2022/08/15 05:24:48;;;;;;;8.25;3.78;;;;;;;21.63;59.30;100132.38;6188396;23;20066;-72
2022/08/15 05:27:13;;;;;;;8.43;3.88;;;;;;;21.65;59.42;100132.91;6215292;23;20016;-71
2022/08/15 05:29:40;;;;;;;11.07;3.95;;;;;;;21.67;59.04;100144.41;6214987;23;20004;-71
2022/08/15 05:32:09;;;;;;;8.98;3.83;;;;;;;21.63;59.08;100151.66;6188701;23;20005;-72
2022/08/15 05:34:34;;;;;;;9.93;4.38;;;;;;;21.64;59.71;100136.78;6215631;23;20008;-72
2022/08/15 05:37:01;;;;;;;11.05;4.47;;;;;;;21.64;60.44;100153.28;6215390;23;20011;-70
2022/08/15 05:39:30;;;;;;;8.07;4.07;;;;;;;21.61;60.82;100148.41;6214694;23;20083;-69
2022/08/15 05:42:15;;;;;;;10.05;4.30;;;;;;;21.61;60.23;100140.16;6214899;23;20005;-68
2022/08/15 05:45:01;;;;;;;10.93;4.28;;;;;;;21.61;60.52;100142.91;6215627;23;20000;-72
2022/08/15 05:47:43;;;;;;;8.60;4.28;;;;;;;21.57;61.01;100148.25;6215461;23;20032;-70
2022/08/15 05:50:46;;;;;;;9.32;4.18;;;;;;;21.56;60.77;100148.56;6188388;23;20019;-71
2022/08/15 05:53:45;;;;;;;12.23;4.13;;;;;;;21.55;61.43;100149.69;6178934;23;20043;-70
2022/08/15 05:56:21;;;;;;;6.85;3.92;;;;;;;21.51;61.97;100159.69;6214762;23;20001;-70
2022/08/15 05:59:09;;;;;;;9.00;3.67;;;;;;;21.54;61.40;100154.38;6187961;23;20009;-69
2022/08/15 06:01:40;;;;;;;9.77;4.05;;;;;;;21.54;61.71;100142.53;6211114;23;20103;-69
2022/08/15 06:04:26;;;;;;;6.75;3.70;;;;;;;21.56;61.28;100146.63;6214892;23;20005;-71
2022/08/15 06:06:54;;;;;;;7.78;3.90;;;;;;;21.55;62.15;100152.44;6215118;23;20005;-69
2022/08/15 06:09:52;;;;;;;10.02;3.90;;;;;;;21.59;62.08;100157.00;6187914;23;20015;-68
2022/08/15 06:12:30;;;;;;;7.90;3.92;;;;;;;21.62;61.65;100163.00;6148236;23;20427;-70
2022/08/15 06:15:00;;;;;;;10.95;4.13;;;;;;;21.64;61.75;100156.03;6215042;23;20007;-68
2022/08/15 06:17:34;;;;;;;9.53;4.23;;;;;;;21.66;61.77;100164.78;6214852;23;20084;-68
2022/08/15 06:20:03;;;;;;;7.68;4.00;;;;;;;21.66;62.13;100162.03;6214427;23;20079;-67
2022/08/15 06:22:41;;;;;;;7.20;3.55;;;;;;;21.70;62.24;100165.00;6215113;23;20319;-68
2022/08/15 06:25:16;;;;;;;8.57;4.05;;;;;;;21.72;61.96;100163.53;6187850;23;20032;-69
2022/08/15 06:27:53;;;;;;;15.32;4.38;;;;;;;21.74;62.06;100160.44;6214780;23;20312;-69
2022/08/15 06:30:25;;;;;;;5.47;4.00;;;;;;;21.74;62.76;100157.69;6214409;23;20326;-68
2022/08/15 06:33:16;;;;;;;7.22;3.47;;;;;;;21.83;62.13;100160.50;6214861;23;20077;-69
2022/08/15 06:35:49;;;;;;;6.30;3.70;;;;;;;21.83;62.82;100160.50;6215071;23;20000;-68
2022/08/15 06:38:25;;;;;;;7.10;3.90;;;;;;;21.86;63.19;100162.59;6214738;23;20074;-68
2022/08/15 06:40:56;;;;;;;7.63;3.92;;;;;;;21.85;63.03;100153.53;6213046;23;20012;-68
2022/08/15 06:43:21;;;;;;;5.93;4.35;;;;;;;21.87;63.59;100147.72;6214992;23;20001;-70
2022/08/15 06:45:49;;;;;;;12.43;4.22;;;;;;;21.89;63.39;100150.97;6214713;23;20004;-71
2022/08/15 06:48:29;;;;;;;7.13;4.28;;;;;;;21.82;63.30;100154.19;6213155;23;20015;-71
2022/08/15 06:50:59;;;;;;;6.47;3.67;;;;;;;21.82;63.67;100169.91;6214465;23;20015;-71
2022/08/15 06:53:40;;;;;;;9.48;4.22;;;;;;;21.80;63.91;100163.88;6213743;23;20016;-69
2022/08/15 06:56:27;;;;;;;8.43;3.92;;;;;;;21.83;63.98;100160.50;6186321;23;20303;-72
2022/08/15 06:59:02;;;;;;;11.32;4.10;;;;;;;21.85;63.55;100163.75;6214518;23;20008;-70
2022/08/15 07:01:44;;;;;;;8.25;4.10;;;;;;;21.87;64.24;100170.56;6210678;23;20032;-71
2022/08/15 07:04:26;;;;;;;7.85;3.97;;;;;;;21.90;63.99;100166.38;6214366;23;20011;-70
2022/08/15 07:07:02;;;;;;;14.80;4.65;;;;;;;22.02;63.68;100163.00;6214298;23;20004;-71
2022/08/15 07:10:00;;;;;;;10.10;4.28;;;;;;;21.99;63.72;100153.44;6187626;23;20486;-71
2022/08/15 07:12:31;;;;;;;8.02;4.22;;;;;;;22.10;63.76;100156.69;6214647;23;20444;-71
2022/08/15 07:15:00;;;;;;;;;;;;;;;22.22;63.13;100165.19;6214131;23;20385;-70
2022/08/15 07:17:45;;;;;;;7.32;4.32;;;;;;;22.24;63.66;100154.63;6214421;23;19907;-74
2022/08/15 07:20:11;;;;;;;7.70;4.45;;;;;;;22.25;63.76;100160.97;6188585;23;20076;-71
2022/08/15 07:22:39;;;;;;;11.10;4.72;;;;;;;22.28;63.95;100152.03;6216601;23;20001;-70
2022/08/15 07:25:13;;;;;;;10.73;4.75;;;;;;;22.35;63.74;100159.88;6214454;23;20024;-70
2022/08/15 07:27:39;;;;;;;9.55;4.88;;;;;;;22.37;63.88;100155.66;6216189;23;20005;-72
2022/08/15 07:30:21;;;;;;;9.65;4.90;;;;;;;22.39;63.13;100156.16;6189739;23;20016;-72
2022/08/15 07:32:50;;;;;;;9.35;5.28;;;;;;;22.36;63.60;100153.22;6190179;23;20056;-72
2022/08/15 07:35:24;;;;;;;8.98;5.30;;;;;;;22.41;63.60;100153.88;6216790;23;20023;-70
2022/08/15 07:37:56;;;;;;;11.38;5.72;;;;;;;22.37;63.22;100158.41;6216510;23;20015;-72
2022/08/15 07:40:43;;;;;;;9.85;5.20;;;;;;;22.36;63.47;100150.47;6189540;23;20035;-73
2022/08/15 07:43:25;;;;;;;25.40;6.60;;;;;;;22.39;63.44;100161.69;6216227;23;20326;-73
2022/08/15 07:46:05;;;;;;;12.85;5.80;;;;;;;22.40;63.51;100154.22;6189383;23;20008;-70
2022/08/15 07:48:32;;;;;;;8.90;5.50;;;;;;;22.38;63.39;100157.28;6216618;23;20008;-70
2022/08/15 07:51:03;;;;;;;8.00;5.60;;;;;;;22.39;63.65;100166.34;6189239;23;20247;-70
2022/08/15 07:53:30;;;;;;;10.45;5.50;;;;;;;22.39;64.01;100164.44;6216212;23;20464;-68
2022/08/15 07:56:05;;;;;;;9.07;5.28;;;;;;;22.44;63.81;100164.28;6215414;23;20013;-70
2022/08/15 07:58:34;;;;;;;10.75;5.30;;;;;;;22.51;63.77;100162.97;6215872;23;20005;-70
2022/08/15 08:01:32;;;;;;;6.50;4.75;;;;;;;22.57;63.17;100168.03;6212941;23;20351;-71
2022/08/15 08:04:00;;;;;;;11.40;5.20;;;;;;;22.58;63.70;100168.84;6188312;23;20008;-68
2022/08/15 08:06:31;;;;;;;13.20;6.00;;;;;;;22.61;63.04;100176.47;6216479;23;20012;-69
2022/08/15 08:09:22;;;;;;;12.20;5.10;;;;;;;22.68;63.15;100171.28;6215844;23;20000;-70
2022/08/15 08:11:55;;;;;;;10.53;5.33;;;;;;;22.67;63.44;100169.66;6215248;23;20005;-69
2022/08/15 08:14:29;;;;;;;9.95;4.82;;;;;;;22.79;63.31;100174.53;6216319;23;20232;-69
2022/08/15 08:16:59;;;;;;;9.30;5.18;;;;;;;22.80;63.15;100173.41;6216095;23;20334;-69
2022/08/15 08:20:03;;;;;;;9.65;5.25;;;;;;;22.88;62.46;100182.81;6214689;23;20442;-69
2022/08/15 08:23:04;;;;;;;7.03;4.38;;;;;;;22.95;62.37;100185.91;6208768;23;20020;-69
2022/08/15 08:25:54;;;;;;;8.32;5.10;;;;;;;22.93;62.46;100180.72;6195824;23;20060;-70
2022/08/15 08:28:59;;;;;;;10.07;5.07;;;;;;;23.01;62.61;100188.16;6215081;23;20040;-69
2022/08/15 08:31:30;;;;;;;8.90;5.25;;;;;;;23.01;62.21;100190.13;6180323;23;20009;-68
2022/08/15 08:34:29;;;;;;;9.65;4.90;;;;;;;23.02;62.46;100180.69;6214763;23;20009;-70
2022/08/15 08:37:47;;;;;;;9.95;4.75;;;;;;;23.02;62.28;100183.44;6114017;23;20070;-70
2022/08/15 08:44:09;;;;;;;18.20;5.82;;;;;;;23.05;62.66;100182.00;6215057;23;20024;-69
2022/08/15 08:50:19;;;;;;;;;;;;;;;23.01;62.36;100187.34;6214315;23;20016;-68
2022/08/15 08:53:11;;;;;;;20.63;5.43;;;;;;;22.98;62.83;100188.00;6216175;23;19912;-68
2022/08/15 08:55:47;;;;;;;15.75;5.32;;;;;;;22.90;63.26;100186.03;6189518;23;20012;-69
2022/08/15 08:58:21;;;;;;;15.40;5.10;;;;;;;22.81;63.55;100181.34;6215044;23;20015;-68
2022/08/15 09:00:50;;;;;;;12.10;5.10;;;;;;;22.81;63.72;100184.09;6211468;23;20042;-68
2022/08/15 09:03:21;;;;;;;10.00;5.32;;;;;;;22.77;63.81;100194.16;6214100;23;20016;-68
2022/08/15 09:05:52;;;;;;;8.63;4.97;;;;;;;22.73;63.83;100187.66;6215402;23;20019;-70
2022/08/15 09:08:24;;;;;;;8.57;5.18;;;;;;;22.78;63.87;100197.72;6215018;23;20252;-66
2022/08/15 09:10:54;;;;;;;12.18;4.80;;;;;;;22.79;64.41;100202.09;6188255;23;20011;-65
2022/08/15 09:13:37;;;;;;;11.68;5.22;;;;;;;22.78;64.42;100200.47;6215914;23;20028;-67
2022/08/15 09:16:16;;;;;;;7.45;5.20;;;;;;;22.82;64.29;100205.03;6215674;23;20058;-66
2022/08/15 09:18:50;;;;;;;9.38;5.40;;;;;;;22.85;64.25;100203.56;6214794;23;20011;-66
2022/08/15 09:21:17;;;;;;;10.63;4.88;;;;;;;22.90;64.22;100213.63;6214253;23;20490;-65
2022/08/15 09:23:45;;;;;;;9.60;5.32;;;;;;;22.93;64.22;100201.94;6215781;23;20009;-67
2022/08/15 09:26:16;;;;;;;12.75;5.70;;;;;;;22.95;64.11;100210.72;6188785;23;20016;-65
2022/08/15 09:28:44;;;;;;;9.35;5.63;;;;;;;22.93;63.88;100207.47;6213646;23;20004;-66
2022/08/15 09:31:18;;;;;;;10.15;5.75;;;;;;;22.94;63.71;100206.34;6215550;23;20011;-65
2022/08/15 09:34:00;;;;;;;8.70;5.70;;;;;;;22.97;64.09;100205.69;6189012;23;20390;-66
2022/08/15 09:36:51;;;;;;;9.57;5.70;;;;;;;23.00;63.90;100207.78;6215705;23;20000;-66
2022/08/15 09:39:31;;;;;;;10.95;5.80;;;;;;;23.00;63.94;100210.56;6213845;23;20365;-67
2022/08/15 09:42:14;;;;;;;7.85;5.80;;;;;;;23.02;63.96;100205.50;6215282;23;20000;-66
2022/08/15 09:44:57;;;;;;;10.95;6.00;;;;;;;23.03;64.07;100211.88;6188346;23;20016;-68
2022/08/15 09:47:40;;;;;;;11.77;5.93;;;;;;;23.11;63.55;100198.06;6215578;23;20027;-69
2022/08/15 09:50:19;;;;;;;11.35;6.20;;;;;;;23.13;63.97;100204.09;6212754;23;20000;-66
2022/08/15 09:52:52;;;;;;;12.13;5.65;;;;;;;23.17;64.01;100196.78;6215363;23;20108;-68
2022/08/15 09:55:44;;;;;;;10.50;5.75;;;;;;;23.30;63.92;100202.47;6215002;23;20425;-68
2022/08/15 09:58:38;;;;;;;10.80;6.22;;;;;;;23.34;63.64;100203.41;6201780;23;20437;-67
2022/08/15 10:01:18;;;;;;;12.68;5.65;;;;;;;23.38;63.88;100211.88;6194087;23;20020;-65
2022/08/15 10:03:43;;;;;;;10.10;6.00;;;;;;;23.45;64.32;100207.47;6213822;23;20087;-66
2022/08/15 10:06:23;;;;;;;10.40;5.70;;;;;;;23.50;63.44;100207.28;6214039;23;20099;-67
2022/08/15 10:08:55;;;;;;;11.43;5.40;;;;;;;23.55;63.45;100214.56;6214434;23;20036;-67
2022/08/15 10:11:24;;;;;;;11.73;6.10;;;;;;;23.54;63.11;100207.44;6214329;23;20007;-67
2022/08/15 10:14:02;;;;;;;10.82;5.88;;;;;;;23.55;62.94;100203.53;6213865;23;20007;-67
2022/08/15 10:16:50;;;;;;;8.85;6.13;;;;;;;23.57;62.94;100209.56;6215226;23;20004;-69
2022/08/15 10:19:37;;;;;;;9.32;5.10;;;;;;;23.63;62.95;100208.22;6214979;23;20084;-67
2022/08/15 10:22:24;;;;;;;10.05;6.10;;;;;;;23.66;62.61;100204.00;6214430;23;20012;-67
2022/08/15 10:25:28;;;;;;;11.27;5.70;;;;;;;23.73;62.50;100211.78;6215227;23;20009;-68
2022/08/15 10:28:11;;;;;;;11.68;5.82;;;;;;;23.70;62.15;100208.53;6215077;23;20008;-67
2022/08/15 10:30:46;;;;;;;12.30;5.43;;;;;;;23.70;61.88;100204.94;6214714;23;20001;-68
2022/08/15 10:33:33;;;;;;;12.40;5.30;;;;;;;23.69;62.02;100206.91;6214832;23;20011;-67
2022/08/15 10:36:13;;;;;;;9.75;5.10;;;;;;;23.71;61.51;100204.63;6213872;23;20007;-67
2022/08/15 10:38:51;;;;;;;11.30;5.00;;;;;;;23.74;61.74;100211.44;6214578;23;20008;-67
2022/08/15 10:41:36;;;;;;;12.35;5.35;;;;;;;23.69;62.13;100208.88;6213436;23;20256;-66
2022/08/15 10:44:23;;;;;;;7.35;5.20;;;;;;;23.63;61.99;100212.97;6215186;23;20012;-67
2022/08/15 10:47:31;;;;;;;10.25;4.70;;;;;;;23.67;62.49;100219.44;6215059;23;20032;-67
2022/08/15 10:50:09;;;;;;;13.50;5.47;;;;;;;23.68;62.02;100215.53;6108246;23;20026;-67
2022/08/15 10:53:08;;;;;;;10.90;4.70;;;;;;;23.70;62.14;100219.59;6215058;23;20012;-67
2022/08/15 10:55:37;;;;;;;8.63;4.65;;;;;;;23.72;62.70;100227.56;6214264;23;20014;-67
2022/08/15 10:58:11;;;;;;;10.98;5.50;;;;;;;23.72;61.87;100222.03;6214661;23;20004;-66
2022/08/15 11:00:51;;;;;;;11.60;5.28;;;;;;;23.72;62.14;100227.56;6210592;23;20007;-65
2022/08/15 11:03:20;;;;;;;10.60;4.82;;;;;;;23.67;62.10;100224.94;6214651;23;20005;-68
2022/08/15 11:06:02;;;;;;;13.30;4.72;;;;;;;23.65;61.81;100227.25;6214438;23;20016;-67
2022/08/15 11:08:27;;;;;;;11.77;4.85;;;;;;;23.65;62.51;100224.47;6214701;23;20092;-66
2022/08/15 11:11:00;;;;;;;9.77;4.78;;;;;;;23.66;61.93;100226.09;6214400;23;20387;-67
2022/08/15 11:13:28;;;;;;;10.90;5.13;;;;;;;23.66;61.79;100223.34;6214540;23;20004;-66
2022/08/15 11:15:57;;;;;;;8.98;5.30;;;;;;;23.62;62.51;100222.38;6214844;23;20007;-66
2022/08/15 11:18:29;;;;;;;10.70;4.80;;;;;;;23.63;62.65;100218.47;6214213;23;20388;-67
2022/08/15 11:21:14;;;;;;;10.00;4.90;;;;;;;23.62;62.58;100223.19;6214817;23;20012;-67
2022/08/15 11:23:40;;;;;;;9.30;4.78;;;;;;;23.64;61.89;100215.38;6214851;23;20004;-67
2022/08/15 11:26:08;;;;;;;8.43;4.90;;;;;;;23.65;61.74;100221.72;6213555;23;20005;-66
2022/08/15 11:28:34;;;;;;;8.60;4.50;;;;;;;23.66;62.07;100215.06;6214679;23;20415;-66
2022/08/15 11:31:06;;;;;;;8.77;4.93;;;;;;;23.69;62.18;100217.16;6213234;23;20082;-66
2022/08/15 11:33:41;;;;;;;10.82;4.68;;;;;;;23.74;61.97;100219.72;6214830;23;20006;-67
2022/08/15 11:36:12;;;;;;;9.32;5.10;;;;;;;23.79;61.96;100211.25;6213578;23;20004;-66
2022/08/15 11:38:44;;;;;;;10.05;4.88;;;;;;;23.84;61.38;100222.16;6214688;23;20005;-66
2022/08/15 11:41:17;;;;;;;11.02;4.95;;;;;;;23.86;60.79;100219.09;6214451;23;20012;-66
2022/08/15 11:43:42;;;;;;;6.88;4.63;;;;;;;23.85;61.01;100223.81;6187932;23;20100;-66
2022/08/15 11:46:07;;;;;;;10.13;5.05;;;;;;;23.86;60.59;100225.41;6213840;23;20032;-67
2022/08/15 11:48:36;;;;;;;9.68;5.30;;;;;;;23.86;60.61;100227.38;6214533;23;20001;-65
2022/08/15 11:51:22;;;;;;;8.65;4.85;;;;;;;23.94;60.66;100228.47;6214604;23;20398;-66
2022/08/15 11:54:12;;;;;;;10.32;5.70;;;;;;;23.96;60.34;100227.03;6214276;23;20146;-66
2022/08/15 11:57:01;;;;;;;8.00;4.68;;;;;;;23.98;60.30;100229.44;6213474;23;20422;-65